logo
Rechercher aéroport 
image banner adimage banner adimage banner ad
image banner ad

MGCD - Caramelo

Situé à Retalhuleu, Guatemala

ICAO - , IATA -

Données fournies par Airmate  

Information générale

Coordonnées: N14°33'5" W92°1'32"
Élévation : 57 feet MSL.
Variation magnétique : 1° East
Voir autres Aéroports à San Marcos

Données opérationnelles

Special qualification required
Heure actuelle UTC:
Heure actuelle locale:
METAR: MMTP 232040Z 19006KT 7SM FEW030 SCT180 33/25 A2986 RMK SLP136 57018 965 8/101 HZY FRMG TCU E NE
TAF: TAF MMTP 231735Z 2318/2418 24010KT P6SM SCT030 BECMG 2321/2322 BKN030 TEMPO 2323/2403 4SM TSRA BKN030CB OVC080 FM240400 00000KT P6SM SCT030 BKN080 BECMG 2417/2418 24008KT SCT030
Voir NOTAMs / SUP AIP / TFR affectant cet aéroport [VIEW]
Fréquences de communication: [VIEW]

Pistes:

Identifiant RWYQFULongueur (ft)Largeur (ft)SurfaceLDA (ft)
30296°319668GRAS
12116°319668GRAS

Coordonnées de l'aéroport

Adresse: Retalhuleu Guatemala

Vue satellite de MGCD